sensor_id;sensor_type;location;lat;lon;timestamp;P1;durP1;ratioP1;P2;durP2;ratioP2
68821;SDS011;55834;50.870;4.606;2023-06-22T00:01:17;5.53;;;3.50;;
68821;SDS011;55834;50.870;4.606;2023-06-22T00:03:43;6.43;;;4.32;;
68821;SDS011;55834;50.870;4.606;2023-06-22T00:06:08;5.45;;;3.25;;
68821;SDS011;55834;50.870;4.606;2023-06-22T00:08:33;5.13;;;4.10;;
68821;SDS011;55834;50.870;4.606;2023-06-22T00:10:59;5.85;;;4.47;;
68821;SDS011;55834;50.870;4.606;2023-06-22T00:13:24;4.05;;;3.45;;
68821;SDS011;55834;50.870;4.606;2023-06-22T00:15:50;5.47;;;4.30;;
68821;SDS011;55834;50.870;4.606;2023-06-22T00:18:15;4.67;;;3.93;;
68821;SDS011;55834;50.870;4.606;2023-06-22T00:20:41;7.38;;;3.92;;
68821;SDS011;55834;50.870;4.606;2023-06-22T00:23:07;5.50;;;3.63;;
68821;SDS011;55834;50.870;4.606;2023-06-22T00:25:33;5.85;;;3.90;;
68821;SDS011;55834;50.870;4.606;2023-06-22T00:28:02;6.28;;;3.65;;
68821;SDS011;55834;50.870;4.606;2023-06-22T00:30:29;4.20;;;3.35;;
68821;SDS011;55834;50.870;4.606;2023-06-22T00:32:56;6.85;;;3.83;;
68821;SDS011;55834;50.870;4.606;2023-06-22T00:35:21;6.25;;;3.85;;
68821;SDS011;55834;50.870;4.606;2023-06-22T00:37:47;5.68;;;3.90;;
68821;SDS011;55834;50.870;4.606;2023-06-22T00:40:12;6.88;;;3.60;;
68821;SDS011;55834;50.870;4.606;2023-06-22T00:42:39;4.18;;;3.47;;
68821;SDS011;55834;50.870;4.606;2023-06-22T00:45:05;4.20;;;3.55;;
68821;SDS011;55834;50.870;4.606;2023-06-22T00:47:33;4.97;;;3.58;;
68821;SDS011;55834;50.870;4.606;2023-06-22T00:49:59;6.22;;;3.80;;
68821;SDS011;55834;50.870;4.606;2023-06-22T00:52:25;5.18;;;3.80;;
68821;SDS011;55834;50.870;4.606;2023-06-22T00:54:54;5.32;;;3.47;;
68821;SDS011;55834;50.870;4.606;2023-06-22T00:57:20;4.05;;;3.50;;
68821;SDS011;55834;50.870;4.606;2023-06-22T00:59:47;5.40;;;4.47;;
68821;SDS011;55834;50.870;4.606;2023-06-22T01:02:13;5.53;;;3.55;;
68821;SDS011;55834;50.870;4.606;2023-06-22T01:04:39;5.93;;;3.60;;
68821;SDS011;55834;50.870;4.606;2023-06-22T01:09:31;7.30;;;3.83;;
68821;SDS011;55834;50.870;4.606;2023-06-22T01:12:01;4.72;;;3.35;;
68821;SDS011;55834;50.870;4.606;2023-06-22T01:14:35;5.88;;;4.32;;
68821;SDS011;55834;50.870;4.606;2023-06-22T01:17:12;4.90;;;4.18;;
68821;SDS011;55834;50.870;4.606;2023-06-22T01:19:45;6.93;;;3.90;;
68821;SDS011;55834;50.870;4.606;2023-06-22T01:22:14;4.95;;;3.65;;
68821;SDS011;55834;50.870;4.606;2023-06-22T01:25:00;6.32;;;4.15;;
68821;SDS011;55834;50.870;4.606;2023-06-22T01:27:33;4.28;;;3.53;;
68821;SDS011;55834;50.870;4.606;2023-06-22T01:30:10;4.60;;;3.55;;
68821;SDS011;55834;50.870;4.606;2023-06-22T01:32:39;4.35;;;3.58;;
68821;SDS011;55834;50.870;4.606;2023-06-22T01:35:07;4.55;;;3.40;;
68821;SDS011;55834;50.870;4.606;2023-06-22T01:37:34;4.72;;;3.58;;
68821;SDS011;55834;50.870;4.606;2023-06-22T01:40:02;6.95;;;3.65;;
68821;SDS011;55834;50.870;4.606;2023-06-22T01:42:30;7.05;;;4.05;;
68821;SDS011;55834;50.870;4.606;2023-06-22T01:44:56;6.63;;;3.97;;
68821;SDS011;55834;50.870;4.606;2023-06-22T01:47:24;6.35;;;3.90;;
68821;SDS011;55834;50.870;4.606;2023-06-22T01:49:50;5.20;;;3.45;;
68821;SDS011;55834;50.870;4.606;2023-06-22T01:52:17;5.18;;;3.45;;
68821;SDS011;55834;50.870;4.606;2023-06-22T01:54:43;5.53;;;4.22;;
68821;SDS011;55834;50.870;4.606;2023-06-22T01:57:08;6.35;;;4.10;;
68821;SDS011;55834;50.870;4.606;2023-06-22T01:59:37;5.72;;;3.85;;
68821;SDS011;55834;50.870;4.606;2023-06-22T02:02:06;5.97;;;4.40;;
68821;SDS011;55834;50.870;4.606;2023-06-22T02:04:34;5.30;;;3.70;;
68821;SDS011;55834;50.870;4.606;2023-06-22T02:07:09;7.53;;;4.75;;
68821;SDS011;55834;50.870;4.606;2023-06-22T02:09:39;4.85;;;3.97;;
68821;SDS011;55834;50.870;4.606;2023-06-22T02:12:09;6.55;;;3.90;;
68821;SDS011;55834;50.870;4.606;2023-06-22T02:14:37;7.07;;;3.95;;
68821;SDS011;55834;50.870;4.606;2023-06-22T02:17:03;6.53;;;4.30;;
68821;SDS011;55834;50.870;4.606;2023-06-22T02:19:32;4.28;;;3.63;;
68821;SDS011;55834;50.870;4.606;2023-06-22T02:22:01;4.20;;;3.80;;
68821;SDS011;55834;50.870;4.606;2023-06-22T02:24:27;4.78;;;3.65;;
68821;SDS011;55834;50.870;4.606;2023-06-22T02:26:55;6.65;;;4.20;;
68821;SDS011;55834;50.870;4.606;2023-06-22T02:31:47;5.90;;;4.03;;
68821;SDS011;55834;50.870;4.606;2023-06-22T02:34:13;5.57;;;3.63;;
68821;SDS011;55834;50.870;4.606;2023-06-22T02:36:43;8.20;;;4.88;;
68821;SDS011;55834;50.870;4.606;2023-06-22T02:39:17;8.80;;;5.03;;
68821;SDS011;55834;50.870;4.606;2023-06-22T02:41:44;7.43;;;5.00;;
68821;SDS011;55834;50.870;4.606;2023-06-22T02:44:09;8.47;;;5.00;;
68821;SDS011;55834;50.870;4.606;2023-06-22T02:46:35;10.83;;;5.03;;
68821;SDS011;55834;50.870;4.606;2023-06-22T02:49:01;9.43;;;5.07;;
68821;SDS011;55834;50.870;4.606;2023-06-22T02:51:26;5.78;;;4.38;;
68821;SDS011;55834;50.870;4.606;2023-06-22T02:53:51;7.00;;;4.60;;
68821;SDS011;55834;50.870;4.606;2023-06-22T02:56:22;6.50;;;4.20;;
68821;SDS011;55834;50.870;4.606;2023-06-22T02:58:50;5.90;;;4.05;;
68821;SDS011;55834;50.870;4.606;2023-06-22T03:01:15;5.30;;;4.10;;
68821;SDS011;55834;50.870;4.606;2023-06-22T03:03:40;4.43;;;3.93;;
68821;SDS011;55834;50.870;4.606;2023-06-22T03:06:06;4.40;;;3.13;;
68821;SDS011;55834;50.870;4.606;2023-06-22T03:08:31;4.83;;;3.27;;
68821;SDS011;55834;50.870;4.606;2023-06-22T03:10:57;4.05;;;3.50;;
68821;SDS011;55834;50.870;4.606;2023-06-22T03:13:22;4.63;;;3.90;;
68821;SDS011;55834;50.870;4.606;2023-06-22T03:15:48;5.35;;;3.45;;
68821;SDS011;55834;50.870;4.606;2023-06-22T03:18:14;7.70;;;4.70;;
68821;SDS011;55834;50.870;4.606;2023-06-22T03:20:40;6.03;;;4.72;;
68821;SDS011;55834;50.870;4.606;2023-06-22T03:23:06;6.15;;;4.13;;
68821;SDS011;55834;50.870;4.606;2023-06-22T03:25:31;5.93;;;4.13;;
68821;SDS011;55834;50.870;4.606;2023-06-22T03:27:58;5.90;;;4.38;;
68821;SDS011;55834;50.870;4.606;2023-06-22T03:30:25;6.60;;;4.10;;
68821;SDS011;55834;50.870;4.606;2023-06-22T03:32:50;8.87;;;5.10;;
68821;SDS011;55834;50.870;4.606;2023-06-22T03:35:16;6.07;;;4.63;;
68821;SDS011;55834;50.870;4.606;2023-06-22T03:37:41;7.40;;;5.38;;
68821;SDS011;55834;50.870;4.606;2023-06-22T03:40:07;8.27;;;5.07;;
68821;SDS011;55834;50.870;4.606;2023-06-22T03:42:34;5.97;;;4.70;;
68821;SDS011;55834;50.870;4.606;2023-06-22T03:45:03;5.88;;;3.83;;
68821;SDS011;55834;50.870;4.606;2023-06-22T03:47:29;5.78;;;3.13;;
68821;SDS011;55834;50.870;4.606;2023-06-22T03:49:54;6.60;;;3.80;;
68821;SDS011;55834;50.870;4.606;2023-06-22T03:52:20;5.95;;;4.30;;
68821;SDS011;55834;50.870;4.606;2023-06-22T03:54:47;5.15;;;3.75;;
68821;SDS011;55834;50.870;4.606;2023-06-22T03:57:12;5.95;;;4.47;;
68821;SDS011;55834;50.870;4.606;2023-06-22T03:59:38;5.23;;;3.80;;
68821;SDS011;55834;50.870;4.606;2023-06-22T04:02:03;3.80;;;2.87;;
68821;SDS011;55834;50.870;4.606;2023-06-22T04:04:29;5.10;;;4.07;;
68821;SDS011;55834;50.870;4.606;2023-06-22T04:06:54;5.50;;;3.85;;
68821;SDS011;55834;50.870;4.606;2023-06-22T04:09:20;7.78;;;4.68;;
68821;SDS011;55834;50.870;4.606;2023-06-22T04:11:46;7.50;;;5.22;;
68821;SDS011;55834;50.870;4.606;2023-06-22T04:14:12;7.57;;;4.53;;
68821;SDS011;55834;50.870;4.606;2023-06-22T04:16:37;6.32;;;3.60;;
68821;SDS011;55834;50.870;4.606;2023-06-22T04:19:02;8.73;;;5.47;;
68821;SDS011;55834;50.870;4.606;2023-06-22T04:21:28;7.32;;;5.15;;
68821;SDS011;55834;50.870;4.606;2023-06-22T04:23:53;15.17;;;4.93;;
68821;SDS011;55834;50.870;4.606;2023-06-22T04:26:18;3.90;;;2.97;;
68821;SDS011;55834;50.870;4.606;2023-06-22T04:28:46;5.07;;;3.72;;
68821;SDS011;55834;50.870;4.606;2023-06-22T04:31:17;10.50;;;6.90;;
68821;SDS011;55834;50.870;4.606;2023-06-22T04:33:43;5.32;;;4.10;;
68821;SDS011;55834;50.870;4.606;2023-06-22T04:36:08;6.50;;;4.80;;
68821;SDS011;55834;50.870;4.606;2023-06-22T04:38:38;8.65;;;6.00;;
68821;SDS011;55834;50.870;4.606;2023-06-22T04:41:03;8.63;;;6.00;;
68821;SDS011;55834;50.870;4.606;2023-06-22T04:43:29;7.57;;;5.27;;
68821;SDS011;55834;50.870;4.606;2023-06-22T04:45:55;7.93;;;4.40;;
68821;SDS011;55834;50.870;4.606;2023-06-22T04:48:21;6.57;;;5.38;;
68821;SDS011;55834;50.870;4.606;2023-06-22T04:50:47;9.13;;;5.80;;
68821;SDS011;55834;50.870;4.606;2023-06-22T04:53:12;8.90;;;5.63;;
68821;SDS011;55834;50.870;4.606;2023-06-22T04:55:38;5.30;;;4.15;;
68821;SDS011;55834;50.870;4.606;2023-06-22T04:58:06;6.93;;;4.55;;
68821;SDS011;55834;50.870;4.606;2023-06-22T05:00:32;8.43;;;5.25;;
68821;SDS011;55834;50.870;4.606;2023-06-22T05:03:01;9.98;;;6.15;;
68821;SDS011;55834;50.870;4.606;2023-06-22T05:05:28;8.07;;;5.20;;
68821;SDS011;55834;50.870;4.606;2023-06-22T05:07:55;8.82;;;5.43;;
68821;SDS011;55834;50.870;4.606;2023-06-22T05:10:25;9.60;;;4.80;;
68821;SDS011;55834;50.870;4.606;2023-06-22T05:12:51;7.88;;;5.50;;
68821;SDS011;55834;50.870;4.606;2023-06-22T05:15:16;8.40;;;5.35;;
68821;SDS011;55834;50.870;4.606;2023-06-22T05:17:44;6.50;;;5.35;;
68821;SDS011;55834;50.870;4.606;2023-06-22T05:20:10;10.25;;;5.53;;
68821;SDS011;55834;50.870;4.606;2023-06-22T05:22:37;6.03;;;3.92;;
68821;SDS011;55834;50.870;4.606;2023-06-22T05:25:04;8.55;;;6.15;;
68821;SDS011;55834;50.870;4.606;2023-06-22T05:27:31;6.63;;;5.00;;
68821;SDS011;55834;50.870;4.606;2023-06-22T05:29:57;9.00;;;5.40;;
68821;SDS011;55834;50.870;4.606;2023-06-22T05:32:22;8.80;;;4.83;;
68821;SDS011;55834;50.870;4.606;2023-06-22T05:34:47;9.60;;;5.10;;
68821;SDS011;55834;50.870;4.606;2023-06-22T05:37:13;10.18;;;5.80;;
68821;SDS011;55834;50.870;4.606;2023-06-22T05:39:38;6.50;;;5.03;;
68821;SDS011;55834;50.870;4.606;2023-06-22T05:42:07;8.18;;;5.35;;
68821;SDS011;55834;50.870;4.606;2023-06-22T05:44:33;6.75;;;5.25;;
68821;SDS011;55834;50.870;4.606;2023-06-22T05:46:58;10.18;;;5.95;;
68821;SDS011;55834;50.870;4.606;2023-06-22T05:49:24;8.07;;;5.78;;
68821;SDS011;55834;50.870;4.606;2023-06-22T05:51:54;6.82;;;5.57;;
68821;SDS011;55834;50.870;4.606;2023-06-22T05:54:20;9.88;;;6.03;;
68821;SDS011;55834;50.870;4.606;2023-06-22T05:56:45;9.40;;;6.40;;
68821;SDS011;55834;50.870;4.606;2023-06-22T05:59:11;10.07;;;6.63;;
68821;SDS011;55834;50.870;4.606;2023-06-22T06:01:37;9.48;;;6.18;;
68821;SDS011;55834;50.870;4.606;2023-06-22T06:04:02;7.80;;;5.60;;
68821;SDS011;55834;50.870;4.606;2023-06-22T06:06:29;8.15;;;5.90;;
68821;SDS011;55834;50.870;4.606;2023-06-22T06:08:54;10.48;;;7.60;;
68821;SDS011;55834;50.870;4.606;2023-06-22T06:11:21;9.55;;;6.45;;
68821;SDS011;55834;50.870;4.606;2023-06-22T06:13:47;8.60;;;7.28;;
68821;SDS011;55834;50.870;4.606;2023-06-22T06:16:12;8.10;;;6.43;;
68821;SDS011;55834;50.870;4.606;2023-06-22T06:18:37;10.43;;;7.53;;
68821;SDS011;55834;50.870;4.606;2023-06-22T06:21:03;9.88;;;6.55;;
68821;SDS011;55834;50.870;4.606;2023-06-22T06:23:28;9.13;;;6.10;;
68821;SDS011;55834;50.870;4.606;2023-06-22T06:25:54;9.47;;;7.20;;
68821;SDS011;55834;50.870;4.606;2023-06-22T06:28:19;9.35;;;6.85;;
68821;SDS011;55834;50.870;4.606;2023-06-22T06:30:44;8.88;;;7.15;;
68821;SDS011;55834;50.870;4.606;2023-06-22T06:33:12;11.57;;;7.35;;
68821;SDS011;55834;50.870;4.606;2023-06-22T06:35:37;14.13;;;6.72;;
68821;SDS011;55834;50.870;4.606;2023-06-22T06:38:03;12.35;;;7.25;;
68821;SDS011;55834;50.870;4.606;2023-06-22T06:40:28;9.43;;;7.07;;
68821;SDS011;55834;50.870;4.606;2023-06-22T06:42:57;10.38;;;6.85;;
68821;SDS011;55834;50.870;4.606;2023-06-22T06:45:23;12.75;;;8.18;;
68821;SDS011;55834;50.870;4.606;2023-06-22T06:47:49;10.18;;;8.05;;
68821;SDS011;55834;50.870;4.606;2023-06-22T06:50:15;11.60;;;7.25;;
68821;SDS011;55834;50.870;4.606;2023-06-22T06:52:41;9.68;;;7.95;;
68821;SDS011;55834;50.870;4.606;2023-06-22T06:55:07;14.05;;;10.20;;
68821;SDS011;55834;50.870;4.606;2023-06-22T06:57:35;12.82;;;9.27;;
68821;SDS011;55834;50.870;4.606;2023-06-22T07:00:02;10.82;;;7.90;;
68821;SDS011;55834;50.870;4.606;2023-06-22T07:02:34;14.15;;;9.57;;
68821;SDS011;55834;50.870;4.606;2023-06-22T07:04:59;12.65;;;9.00;;
68821;SDS011;55834;50.870;4.606;2023-06-22T07:07:25;14.52;;;9.25;;
68821;SDS011;55834;50.870;4.606;2023-06-22T07:09:50;11.77;;;9.20;;
68821;SDS011;55834;50.870;4.606;2023-06-22T07:12:15;14.00;;;8.60;;
68821;SDS011;55834;50.870;4.606;2023-06-22T07:14:41;12.80;;;9.07;;
68821;SDS011;55834;50.870;4.606;2023-06-22T07:17:06;12.57;;;8.23;;
68821;SDS011;55834;50.870;4.606;2023-06-22T07:19:32;13.23;;;10.70;;
68821;SDS011;55834;50.870;4.606;2023-06-22T07:21:58;12.18;;;9.40;;
68821;SDS011;55834;50.870;4.606;2023-06-22T07:24:24;10.93;;;8.63;;
68821;SDS011;55834;50.870;4.606;2023-06-22T07:26:49;15.23;;;9.45;;
68821;SDS011;55834;50.870;4.606;2023-06-22T07:29:18;13.40;;;10.63;;
68821;SDS011;55834;50.870;4.606;2023-06-22T07:31:46;14.57;;;10.75;;
68821;SDS011;55834;50.870;4.606;2023-06-22T07:34:12;14.02;;;10.40;;
68821;SDS011;55834;50.870;4.606;2023-06-22T07:36:38;14.43;;;11.65;;
68821;SDS011;55834;50.870;4.606;2023-06-22T07:39:03;10.88;;;9.05;;
68821;SDS011;55834;50.870;4.606;2023-06-22T07:41:29;16.92;;;9.55;;
68821;SDS011;55834;50.870;4.606;2023-06-22T07:43:55;12.55;;;9.00;;
68821;SDS011;55834;50.870;4.606;2023-06-22T07:46:21;12.77;;;8.77;;
68821;SDS011;55834;50.870;4.606;2023-06-22T07:48:46;11.35;;;8.80;;
68821;SDS011;55834;50.870;4.606;2023-06-22T07:51:12;17.07;;;9.30;;
68821;SDS011;55834;50.870;4.606;2023-06-22T07:53:38;10.82;;;8.90;;
68821;SDS011;55834;50.870;4.606;2023-06-22T07:56:05;14.18;;;9.60;;
68821;SDS011;55834;50.870;4.606;2023-06-22T08:00:57;10.57;;;9.05;;
68821;SDS011;55834;50.870;4.606;2023-06-22T08:03:22;14.32;;;7.63;;
68821;SDS011;55834;50.870;4.606;2023-06-22T08:05:48;11.23;;;8.07;;
68821;SDS011;55834;50.870;4.606;2023-06-22T08:08:14;10.23;;;7.75;;
68821;SDS011;55834;50.870;4.606;2023-06-22T08:10:39;9.75;;;6.78;;
68821;SDS011;55834;50.870;4.606;2023-06-22T08:13:06;9.45;;;8.07;;
68821;SDS011;55834;50.870;4.606;2023-06-22T08:15:31;10.02;;;7.45;;
68821;SDS011;55834;50.870;4.606;2023-06-22T08:17:56;9.23;;;7.43;;
68821;SDS011;55834;50.870;4.606;2023-06-22T08:20:22;9.20;;;7.13;;
68821;SDS011;55834;50.870;4.606;2023-06-22T08:22:48;11.40;;;8.45;;
68821;SDS011;55834;50.870;4.606;2023-06-22T08:25:13;8.50;;;7.13;;
68821;SDS011;55834;50.870;4.606;2023-06-22T08:27:39;9.60;;;7.40;;
68821;SDS011;55834;50.870;4.606;2023-06-22T08:30:06;11.20;;;7.03;;
68821;SDS011;55834;50.870;4.606;2023-06-22T08:32:32;8.93;;;6.80;;
68821;SDS011;55834;50.870;4.606;2023-06-22T08:34:57;9.35;;;7.60;;
68821;SDS011;55834;50.870;4.606;2023-06-22T08:37:23;13.25;;;9.75;;
68821;SDS011;55834;50.870;4.606;2023-06-22T08:39:55;14.88;;;10.00;;
68821;SDS011;55834;50.870;4.606;2023-06-22T08:42:21;11.38;;;8.60;;
68821;SDS011;55834;50.870;4.606;2023-06-22T08:44:46;9.57;;;7.57;;
68821;SDS011;55834;50.870;4.606;2023-06-22T08:47:11;9.93;;;8.17;;
68821;SDS011;55834;50.870;4.606;2023-06-22T08:49:37;9.30;;;6.87;;
68821;SDS011;55834;50.870;4.606;2023-06-22T08:52:02;8.50;;;7.37;;
68821;SDS011;55834;50.870;4.606;2023-06-22T08:54:27;8.25;;;6.70;;
68821;SDS011;55834;50.870;4.606;2023-06-22T08:56:53;9.10;;;6.43;;
68821;SDS011;55834;50.870;4.606;2023-06-22T08:59:18;8.48;;;5.82;;
68821;SDS011;55834;50.870;4.606;2023-06-22T09:01:43;6.23;;;5.13;;
68821;SDS011;55834;50.870;4.606;2023-06-22T09:04:14;9.68;;;5.65;;
68821;SDS011;55834;50.870;4.606;2023-06-22T09:06:40;6.28;;;4.80;;
68821;SDS011;55834;50.870;4.606;2023-06-22T09:09:10;8.68;;;5.25;;
68821;SDS011;55834;50.870;4.606;2023-06-22T09:11:35;6.95;;;5.53;;
68821;SDS011;55834;50.870;4.606;2023-06-22T09:14:01;7.13;;;4.90;;
68821;SDS011;55834;50.870;4.606;2023-06-22T09:16:26;6.78;;;4.88;;
68821;SDS011;55834;50.870;4.606;2023-06-22T09:18:52;5.35;;;4.38;;
68821;SDS011;55834;50.870;4.606;2023-06-22T09:21:17;6.25;;;4.93;;
68821;SDS011;55834;50.870;4.606;2023-06-22T09:23:42;7.35;;;5.85;;
68821;SDS011;55834;50.870;4.606;2023-06-22T09:26:08;6.10;;;4.75;;
68821;SDS011;55834;50.870;4.606;2023-06-22T09:28:34;5.90;;;4.18;;
68821;SDS011;55834;50.870;4.606;2023-06-22T09:30:59;8.93;;;5.90;;
68821;SDS011;55834;50.870;4.606;2023-06-22T09:33:25;5.20;;;3.90;;
68821;SDS011;55834;50.870;4.606;2023-06-22T09:35:51;5.95;;;3.70;;
68821;SDS011;55834;50.870;4.606;2023-06-22T09:38:17;6.93;;;6.07;;
68821;SDS011;55834;50.870;4.606;2023-06-22T09:40:42;6.10;;;5.25;;
68821;SDS011;55834;50.870;4.606;2023-06-22T09:43:08;5.63;;;5.10;;
68821;SDS011;55834;50.870;4.606;2023-06-22T09:45:33;7.30;;;4.55;;
68821;SDS011;55834;50.870;4.606;2023-06-22T09:47:59;10.45;;;6.97;;
68821;SDS011;55834;50.870;4.606;2023-06-22T09:50:24;8.82;;;6.70;;
68821;SDS011;55834;50.870;4.606;2023-06-22T09:52:50;22.57;;;8.00;;
68821;SDS011;55834;50.870;4.606;2023-06-22T09:55:19;14.15;;;7.70;;
68821;SDS011;55834;50.870;4.606;2023-06-22T09:57:48;9.30;;;6.07;;
68821;SDS011;55834;50.870;4.606;2023-06-22T10:00:14;15.15;;;7.72;;
68821;SDS011;55834;50.870;4.606;2023-06-22T10:02:41;9.98;;;7.57;;
68821;SDS011;55834;50.870;4.606;2023-06-22T10:05:07;8.90;;;6.40;;
68821;SDS011;55834;50.870;4.606;2023-06-22T10:07:33;6.68;;;5.45;;
68821;SDS011;55834;50.870;4.606;2023-06-22T10:09:58;8.43;;;7.07;;
68821;SDS011;55834;50.870;4.606;2023-06-22T10:12:24;9.97;;;7.20;;
68821;SDS011;55834;50.870;4.606;2023-06-22T10:14:49;7.45;;;6.55;;
68821;SDS011;55834;50.870;4.606;2023-06-22T10:17:14;11.07;;;7.80;;
68821;SDS011;55834;50.870;4.606;2023-06-22T10:19:40;8.93;;;5.97;;
68821;SDS011;55834;50.870;4.606;2023-06-22T10:22:06;11.13;;;7.40;;
68821;SDS011;55834;50.870;4.606;2023-06-22T10:24:32;9.52;;;8.10;;
68821;SDS011;55834;50.870;4.606;2023-06-22T10:26:57;13.18;;;7.50;;
68821;SDS011;55834;50.870;4.606;2023-06-22T10:29:23;12.18;;;8.35;;
68821;SDS011;55834;50.870;4.606;2023-06-22T10:31:48;10.23;;;7.33;;
68821;SDS011;55834;50.870;4.606;2023-06-22T10:34:15;10.93;;;8.37;;
68821;SDS011;55834;50.870;4.606;2023-06-22T10:36:40;10.02;;;7.28;;
68821;SDS011;55834;50.870;4.606;2023-06-22T10:39:06;11.77;;;8.15;;
68821;SDS011;55834;50.870;4.606;2023-06-22T10:41:31;10.40;;;7.20;;
68821;SDS011;55834;50.870;4.606;2023-06-22T10:43:57;12.88;;;9.23;;
68821;SDS011;55834;50.870;4.606;2023-06-22T10:46:24;12.43;;;9.45;;
68821;SDS011;55834;50.870;4.606;2023-06-22T10:48:53;14.07;;;9.68;;
68821;SDS011;55834;50.870;4.606;2023-06-22T10:51:20;12.55;;;10.40;;
68821;SDS011;55834;50.870;4.606;2023-06-22T10:53:45;11.90;;;9.15;;
68821;SDS011;55834;50.870;4.606;2023-06-22T10:56:11;12.40;;;9.05;;
68821;SDS011;55834;50.870;4.606;2023-06-22T10:58:36;13.03;;;9.10;;
68821;SDS011;55834;50.870;4.606;2023-06-22T11:01:01;14.07;;;11.10;;
68821;SDS011;55834;50.870;4.606;2023-06-22T11:03:28;14.95;;;11.23;;
68821;SDS011;55834;50.870;4.606;2023-06-22T11:05:53;16.23;;;13.93;;
68821;SDS011;55834;50.870;4.606;2023-06-22T11:08:19;17.33;;;12.67;;
68821;SDS011;55834;50.870;4.606;2023-06-22T11:10:44;17.23;;;10.63;;
68821;SDS011;55834;50.870;4.606;2023-06-22T11:13:09;19.88;;;13.65;;
68821;SDS011;55834;50.870;4.606;2023-06-22T11:15:35;20.43;;;14.80;;
68821;SDS011;55834;50.870;4.606;2023-06-22T11:18:01;17.10;;;13.88;;
68821;SDS011;55834;50.870;4.606;2023-06-22T11:20:28;18.88;;;13.05;;
68821;SDS011;55834;50.870;4.606;2023-06-22T11:22:54;19.58;;;14.25;;
68821;SDS011;55834;50.870;4.606;2023-06-22T11:25:20;17.05;;;13.13;;
68821;SDS011;55834;50.870;4.606;2023-06-22T11:27:45;18.10;;;14.77;;
68821;SDS011;55834;50.870;4.606;2023-06-22T11:30:11;18.75;;;15.13;;
68821;SDS011;55834;50.870;4.606;2023-06-22T11:32:36;21.40;;;19.25;;
68821;SDS011;55834;50.870;4.606;2023-06-22T11:35:14;21.08;;;15.75;;
68821;SDS011;55834;50.870;4.606;2023-06-22T11:37:40;22.17;;;16.33;;
68821;SDS011;55834;50.870;4.606;2023-06-22T11:40:08;25.37;;;17.03;;
68821;SDS011;55834;50.870;4.606;2023-06-22T11:42:34;19.30;;;15.57;;
68821;SDS011;55834;50.870;4.606;2023-06-22T11:45:01;22.85;;;18.70;;
68821;SDS011;55834;50.870;4.606;2023-06-22T11:47:29;23.25;;;18.08;;
68821;SDS011;55834;50.870;4.606;2023-06-22T11:49:58;22.33;;;18.33;;
68821;SDS011;55834;50.870;4.606;2023-06-22T11:52:24;29.13;;;20.92;;
68821;SDS011;55834;50.870;4.606;2023-06-22T11:54:49;25.53;;;17.47;;
68821;SDS011;55834;50.870;4.606;2023-06-22T11:57:14;23.55;;;17.67;;
68821;SDS011;55834;50.870;4.606;2023-06-22T11:59:42;22.17;;;18.73;;
68821;SDS011;55834;50.870;4.606;2023-06-22T12:02:11;22.98;;;18.80;;
68821;SDS011;55834;50.870;4.606;2023-06-22T12:04:37;25.55;;;18.30;;
68821;SDS011;55834;50.870;4.606;2023-06-22T12:07:02;24.02;;;19.23;;
68821;SDS011;55834;50.870;4.606;2023-06-22T12:09:29;23.20;;;18.58;;
68821;SDS011;55834;50.870;4.606;2023-06-22T12:11:54;25.85;;;18.85;;
68821;SDS011;55834;50.870;4.606;2023-06-22T12:14:19;22.77;;;17.63;;
68821;SDS011;55834;50.870;4.606;2023-06-22T12:16:45;25.25;;;19.08;;
68821;SDS011;55834;50.870;4.606;2023-06-22T12:19:11;22.13;;;17.30;;
68821;SDS011;55834;50.870;4.606;2023-06-22T12:21:37;21.90;;;15.75;;
68821;SDS011;55834;50.870;4.606;2023-06-22T12:24:02;25.90;;;17.15;;
68821;SDS011;55834;50.870;4.606;2023-06-22T12:26:28;21.45;;;17.15;;
68821;SDS011;55834;50.870;4.606;2023-06-22T12:28:53;22.05;;;16.80;;
68821;SDS011;55834;50.870;4.606;2023-06-22T12:31:18;18.67;;;14.00;;
68821;SDS011;55834;50.870;4.606;2023-06-22T12:33:44;23.80;;;15.80;;
68821;SDS011;55834;50.870;4.606;2023-06-22T12:36:09;19.40;;;15.03;;
68821;SDS011;55834;50.870;4.606;2023-06-22T12:38:35;23.50;;;17.67;;
68821;SDS011;55834;50.870;4.606;2023-06-22T12:41:00;21.73;;;19.35;;
68821;SDS011;55834;50.870;4.606;2023-06-22T12:43:25;21.20;;;16.77;;
68821;SDS011;55834;50.870;4.606;2023-06-22T12:45:51;19.92;;;15.98;;
68821;SDS011;55834;50.870;4.606;2023-06-22T12:48:16;21.47;;;17.37;;
68821;SDS011;55834;50.870;4.606;2023-06-22T12:50:42;22.05;;;17.80;;
68821;SDS011;55834;50.870;4.606;2023-06-22T12:53:07;25.20;;;17.70;;
68821;SDS011;55834;50.870;4.606;2023-06-22T12:55:38;18.70;;;15.48;;
68821;SDS011;55834;50.870;4.606;2023-06-22T12:58:04;28.13;;;17.90;;
68821;SDS011;55834;50.870;4.606;2023-06-22T13:00:29;22.00;;;16.47;;
68821;SDS011;55834;50.870;4.606;2023-06-22T13:02:54;22.50;;;15.47;;
68821;SDS011;55834;50.870;4.606;2023-06-22T13:05:20;21.38;;;15.90;;
68821;SDS011;55834;50.870;4.606;2023-06-22T13:07:45;18.65;;;14.40;;
68821;SDS011;55834;50.870;4.606;2023-06-22T13:10:11;20.02;;;16.30;;
68821;SDS011;55834;50.870;4.606;2023-06-22T13:12:36;21.30;;;16.57;;
68821;SDS011;55834;50.870;4.606;2023-06-22T13:15:01;21.87;;;19.50;;
68821;SDS011;55834;50.870;4.606;2023-06-22T13:17:31;24.90;;;17.67;;
68821;SDS011;55834;50.870;4.606;2023-06-22T13:19:56;22.85;;;16.42;;
68821;SDS011;55834;50.870;4.606;2023-06-22T13:22:29;22.83;;;16.77;;
68821;SDS011;55834;50.870;4.606;2023-06-22T13:24:56;21.13;;;16.15;;
68821;SDS011;55834;50.870;4.606;2023-06-22T13:27:22;27.08;;;19.52;;
68821;SDS011;55834;50.870;4.606;2023-06-22T13:29:48;22.73;;;18.75;;
68821;SDS011;55834;50.870;4.606;2023-06-22T13:32:13;22.13;;;17.88;;
68821;SDS011;55834;50.870;4.606;2023-06-22T13:34:39;22.92;;;17.10;;
68821;SDS011;55834;50.870;4.606;2023-06-22T13:37:04;26.35;;;17.70;;
68821;SDS011;55834;50.870;4.606;2023-06-22T13:39:48;25.17;;;20.23;;
68821;SDS011;55834;50.870;4.606;2023-06-22T13:42:56;23.58;;;17.25;;
68821;SDS011;55834;50.870;4.606;2023-06-22T13:45:25;23.02;;;17.30;;
68821;SDS011;55834;50.870;4.606;2023-06-22T13:47:54;27.67;;;24.20;;
68821;SDS011;55834;50.870;4.606;2023-06-22T13:50:20;23.20;;;17.33;;
68821;SDS011;55834;50.870;4.606;2023-06-22T13:52:45;24.90;;;19.83;;
68821;SDS011;55834;50.870;4.606;2023-06-22T13:55:10;26.70;;;20.23;;
68821;SDS011;55834;50.870;4.606;2023-06-22T13:57:36;23.80;;;18.05;;
68821;SDS011;55834;50.870;4.606;2023-06-22T14:00:03;22.52;;;17.80;;
68821;SDS011;55834;50.870;4.606;2023-06-22T14:02:30;22.45;;;18.33;;
68821;SDS011;55834;50.870;4.606;2023-06-22T14:04:55;21.65;;;18.23;;
68821;SDS011;55834;50.870;4.606;2023-06-22T14:07:21;23.27;;;17.87;;
68821;SDS011;55834;50.870;4.606;2023-06-22T14:09:46;25.80;;;17.47;;
68821;SDS011;55834;50.870;4.606;2023-06-22T14:12:12;20.20;;;15.45;;
68821;SDS011;55834;50.870;4.606;2023-06-22T14:14:38;20.95;;;17.88;;
68821;SDS011;55834;50.870;4.606;2023-06-22T14:17:04;23.73;;;17.08;;
68821;SDS011;55834;50.870;4.606;2023-06-22T14:19:30;24.55;;;19.35;;
68821;SDS011;55834;50.870;4.606;2023-06-22T14:21:55;23.60;;;18.75;;
68821;SDS011;55834;50.870;4.606;2023-06-22T14:24:22;25.52;;;19.70;;
68821;SDS011;55834;50.870;4.606;2023-06-22T14:26:47;23.90;;;17.27;;
68821;SDS011;55834;50.870;4.606;2023-06-22T14:29:13;26.10;;;19.00;;
68821;SDS011;55834;50.870;4.606;2023-06-22T14:31:38;23.95;;;18.80;;
68821;SDS011;55834;50.870;4.606;2023-06-22T14:34:05;26.85;;;22.60;;
68821;SDS011;55834;50.870;4.606;2023-06-22T14:36:32;27.88;;;21.15;;
68821;SDS011;55834;50.870;4.606;2023-06-22T14:38:57;25.17;;;19.48;;
68821;SDS011;55834;50.870;4.606;2023-06-22T14:41:23;23.88;;;18.40;;